Pagina principale
METAR-TAF:

METAR-TAF

Aeroporti :

Funafuti, Tuvalu

latitudine: 08-31S, longitudine: 179-13E, altezza: 1 m

Osservazione

Il bollettino è stato emesso 47 minuti fa, alle 05:00 UTC
Vento 5 kt da est/nord-est
Temperature 31°C
Umidità 66%
Pressione 1009 hPa
Visibilità 10 km o più
Poco nuvoloso ad un'altezza di 2000 ft

METAR: NGFU 180500Z 06005KT 9999 FEW020 31/24 Q1009

Ora: 17:47 (05:47 UTC)

Previsione

Il bollettino è stato emesso 18 minuti fa, alle 05:29 UTC
Previsione valida dal 18 alle 06 UTC al 19 alle 06 UTC
Vento 5 kt da est/nord-est
Visibilità 10 km o più
Nubi sparse ad un'altezza di 2000 ft
Probabilità 30% :
Temporaneamente
dal 18 alle 06 UTC al 18 alle 18 UTC
Visibilità: 3000 m
Nuvoloso ad un'altezza di 1600 ft
Poco nuvoloso ad un'altezza di 1800 ft, Cumulonembo.
temporale, pioggia

TAF: NGFU 180529Z 1806/1906 06005KT 9999 SCT020 PROB30 TEMPO 1806/1818 3000 TSRA BKN016 FEW018CB

Osservazioni e previsioni meteorologiche di più di 4000 aeroporti (messaggi METAR e TAF).

Le stazioni disponibili sono rappresentate dai dischi gialli e rossi sulla carta.

Puntare il mouse per vedere il nome della stazione.

Clicca sopra per visualizzare le osservazioni e previsioni meteorologiche.

Per cambiare la mappa : fare clic sui pulsanti verdi con una croce nera per ingrandire, il pulsante verde con un trattino per diminuire, o sulla freccia verde per le mappe adiacenti.


METAR-TAF: